sensor_id;sensor_type;location;lat;lon;timestamp;P1;durP1;ratioP1;P2;durP2;ratioP2
61685;SDS011;47592;45.904;8.978;2023-02-01T00:02:58;14.82;;;8.73;;
61685;SDS011;47592;45.904;8.978;2023-02-01T00:05:23;14.48;;;8.63;;
61685;SDS011;47592;45.904;8.978;2023-02-01T00:07:49;13.98;;;8.38;;
61685;SDS011;47592;45.904;8.978;2023-02-01T00:10:15;15.85;;;8.52;;
61685;SDS011;47592;45.904;8.978;2023-02-01T00:12:40;13.88;;;8.02;;
61685;SDS011;47592;45.904;8.978;2023-02-01T00:15:06;14.95;;;7.82;;
61685;SDS011;47592;45.904;8.978;2023-02-01T00:17:32;15.73;;;8.10;;
61685;SDS011;47592;45.904;8.978;2023-02-01T00:19:57;13.27;;;7.63;;
61685;SDS011;47592;45.904;8.978;2023-02-01T00:22:23;12.68;;;7.50;;
61685;SDS011;47592;45.904;8.978;2023-02-01T00:24:49;13.02;;;7.47;;
61685;SDS011;47592;45.904;8.978;2023-02-01T00:27:14;14.70;;;7.38;;
61685;SDS011;47592;45.904;8.978;2023-02-01T00:29:43;13.70;;;7.18;;
61685;SDS011;47592;45.904;8.978;2023-02-01T00:32:09;14.95;;;8.10;;
61685;SDS011;47592;45.904;8.978;2023-02-01T00:34:36;12.05;;;7.63;;
61685;SDS011;47592;45.904;8.978;2023-02-01T00:37:01;13.45;;;7.35;;
61685;SDS011;47592;45.904;8.978;2023-02-01T00:39:27;16.85;;;7.32;;
61685;SDS011;47592;45.904;8.978;2023-02-01T00:41:52;13.80;;;7.88;;
61685;SDS011;47592;45.904;8.978;2023-02-01T00:44:18;12.93;;;7.45;;
61685;SDS011;47592;45.904;8.978;2023-02-01T00:46:43;12.50;;;6.68;;
61685;SDS011;47592;45.904;8.978;2023-02-01T00:49:09;14.93;;;8.05;;
61685;SDS011;47592;45.904;8.978;2023-02-01T00:51:34;12.00;;;6.43;;
61685;SDS011;47592;45.904;8.978;2023-02-01T00:54:00;16.17;;;7.25;;
61685;SDS011;47592;45.904;8.978;2023-02-01T00:56:25;12.45;;;7.15;;
61685;SDS011;47592;45.904;8.978;2023-02-01T00:58:54;14.48;;;7.43;;
61685;SDS011;47592;45.904;8.978;2023-02-01T01:01:24;14.35;;;7.30;;
61685;SDS011;47592;45.904;8.978;2023-02-01T01:03:52;14.88;;;7.43;;
61685;SDS011;47592;45.904;8.978;2023-02-01T01:06:21;13.70;;;7.57;;
61685;SDS011;47592;45.904;8.978;2023-02-01T01:08:50;13.10;;;7.43;;
61685;SDS011;47592;45.904;8.978;2023-02-01T01:11:18;12.35;;;7.55;;
61685;SDS011;47592;45.904;8.978;2023-02-01T01:13:46;14.82;;;7.93;;
61685;SDS011;47592;45.904;8.978;2023-02-01T01:16:12;13.32;;;7.53;;
61685;SDS011;47592;45.904;8.978;2023-02-01T01:18:38;13.07;;;7.60;;
61685;SDS011;47592;45.904;8.978;2023-02-01T01:21:04;12.75;;;7.28;;
61685;SDS011;47592;45.904;8.978;2023-02-01T01:23:31;12.63;;;7.10;;
61685;SDS011;47592;45.904;8.978;2023-02-01T01:25:57;14.40;;;8.15;;
61685;SDS011;47592;45.904;8.978;2023-02-01T01:28:22;15.55;;;7.90;;
61685;SDS011;47592;45.904;8.978;2023-02-01T01:30:48;11.68;;;6.75;;
61685;SDS011;47592;45.904;8.978;2023-02-01T01:33:13;13.80;;;7.30;;
61685;SDS011;47592;45.904;8.978;2023-02-01T01:35:39;11.98;;;7.18;;
61685;SDS011;47592;45.904;8.978;2023-02-01T01:38:04;13.32;;;7.60;;
61685;SDS011;47592;45.904;8.978;2023-02-01T01:40:30;11.75;;;7.07;;
61685;SDS011;47592;45.904;8.978;2023-02-01T01:42:56;12.88;;;7.35;;
61685;SDS011;47592;45.904;8.978;2023-02-01T01:45:30;14.57;;;8.20;;
61685;SDS011;47592;45.904;8.978;2023-02-01T01:48:02;15.23;;;7.80;;
61685;SDS011;47592;45.904;8.978;2023-02-01T01:50:37;13.57;;;7.75;;
61685;SDS011;47592;45.904;8.978;2023-02-01T01:53:06;14.93;;;7.22;;
61685;SDS011;47592;45.904;8.978;2023-02-01T01:55:35;14.23;;;8.07;;
61685;SDS011;47592;45.904;8.978;2023-02-01T01:58:04;12.77;;;7.80;;
61685;SDS011;47592;45.904;8.978;2023-02-01T02:00:31;12.60;;;7.55;;
61685;SDS011;47592;45.904;8.978;2023-02-01T02:03:07;13.00;;;7.45;;
61685;SDS011;47592;45.904;8.978;2023-02-01T02:05:55;12.45;;;7.45;;
61685;SDS011;47592;45.904;8.978;2023-02-01T02:08:23;12.25;;;7.80;;
61685;SDS011;47592;45.904;8.978;2023-02-01T02:10:50;12.30;;;7.07;;
61685;SDS011;47592;45.904;8.978;2023-02-01T02:13:35;12.55;;;7.38;;
61685;SDS011;47592;45.904;8.978;2023-02-01T02:21:30;11.10;;;6.78;;
61685;SDS011;47592;45.904;8.978;2023-02-01T02:27:02;16.13;;;7.13;;
61685;SDS011;47592;45.904;8.978;2023-02-01T02:40:38;10.82;;;6.07;;
61685;SDS011;47592;45.904;8.978;2023-02-01T02:43:12;12.93;;;7.00;;
61685;SDS011;47592;45.904;8.978;2023-02-01T02:46:01;14.05;;;6.88;;
61685;SDS011;47592;45.904;8.978;2023-02-01T02:48:54;12.98;;;6.85;;
61685;SDS011;47592;45.904;8.978;2023-02-01T02:54:24;15.25;;;7.57;;
61685;SDS011;47592;45.904;8.978;2023-02-01T02:57:12;15.98;;;7.65;;
61685;SDS011;47592;45.904;8.978;2023-02-01T03:00:00;13.20;;;7.63;;
61685;SDS011;47592;45.904;8.978;2023-02-01T03:02:46;13.77;;;7.57;;
61685;SDS011;47592;45.904;8.978;2023-02-01T03:05:35;12.68;;;7.15;;
61685;SDS011;47592;45.904;8.978;2023-02-01T03:08:02;13.48;;;6.47;;
61685;SDS011;47592;45.904;8.978;2023-02-01T03:18:42;11.43;;;6.20;;
61685;SDS011;47592;45.904;8.978;2023-02-01T03:24:48;12.05;;;6.38;;
61685;SDS011;47592;45.904;8.978;2023-02-01T03:27:39;10.82;;;6.32;;
61685;SDS011;47592;45.904;8.978;2023-02-01T03:32:35;11.13;;;5.90;;
61685;SDS011;47592;45.904;8.978;2023-02-01T03:35:24;10.57;;;5.75;;
61685;SDS011;47592;45.904;8.978;2023-02-01T03:40:48;10.10;;;5.40;;
61685;SDS011;47592;45.904;8.978;2023-02-01T03:43:46;10.77;;;5.53;;
61685;SDS011;47592;45.904;8.978;2023-02-01T03:46:17;10.52;;;6.00;;
61685;SDS011;47592;45.904;8.978;2023-02-01T03:48:47;12.05;;;5.85;;
61685;SDS011;47592;45.904;8.978;2023-02-01T03:51:13;10.43;;;5.47;;
61685;SDS011;47592;45.904;8.978;2023-02-01T03:53:38;10.57;;;5.93;;
61685;SDS011;47592;45.904;8.978;2023-02-01T03:56:05;10.02;;;5.65;;
61685;SDS011;47592;45.904;8.978;2023-02-01T03:58:31;9.38;;;5.22;;
61685;SDS011;47592;45.904;8.978;2023-02-01T04:00:59;10.05;;;5.75;;
61685;SDS011;47592;45.904;8.978;2023-02-01T04:03:25;9.82;;;5.63;;
61685;SDS011;47592;45.904;8.978;2023-02-01T04:05:52;9.93;;;5.18;;
61685;SDS011;47592;45.904;8.978;2023-02-01T04:08:21;10.27;;;5.18;;
61685;SDS011;47592;45.904;8.978;2023-02-01T04:10:47;8.90;;;5.25;;
61685;SDS011;47592;45.904;8.978;2023-02-01T04:13:13;10.13;;;5.53;;
61685;SDS011;47592;45.904;8.978;2023-02-01T04:15:38;11.25;;;6.07;;
61685;SDS011;47592;45.904;8.978;2023-02-01T04:18:04;10.73;;;6.07;;
61685;SDS011;47592;45.904;8.978;2023-02-01T04:20:29;11.40;;;6.20;;
61685;SDS011;47592;45.904;8.978;2023-02-01T04:22:55;11.95;;;6.10;;
61685;SDS011;47592;45.904;8.978;2023-02-01T04:25:20;12.85;;;6.18;;
61685;SDS011;47592;45.904;8.978;2023-02-01T04:27:46;8.98;;;5.60;;
61685;SDS011;47592;45.904;8.978;2023-02-01T04:30:12;11.02;;;5.63;;
61685;SDS011;47592;45.904;8.978;2023-02-01T04:32:38;13.73;;;6.15;;
61685;SDS011;47592;45.904;8.978;2023-02-01T04:35:03;12.82;;;6.25;;
61685;SDS011;47592;45.904;8.978;2023-02-01T04:37:30;11.63;;;6.75;;
61685;SDS011;47592;45.904;8.978;2023-02-01T04:39:55;9.73;;;5.82;;
61685;SDS011;47592;45.904;8.978;2023-02-01T04:42:23;11.15;;;6.38;;
61685;SDS011;47592;45.904;8.978;2023-02-01T04:44:48;12.60;;;6.55;;
61685;SDS011;47592;45.904;8.978;2023-02-01T04:47:14;11.55;;;6.43;;
61685;SDS011;47592;45.904;8.978;2023-02-01T04:49:40;11.48;;;5.65;;
61685;SDS011;47592;45.904;8.978;2023-02-01T04:52:06;10.27;;;5.78;;
61685;SDS011;47592;45.904;8.978;2023-02-01T04:54:31;10.68;;;5.78;;
61685;SDS011;47592;45.904;8.978;2023-02-01T04:56:57;10.80;;;5.80;;
61685;SDS011;47592;45.904;8.978;2023-02-01T04:59:22;13.45;;;5.85;;
61685;SDS011;47592;45.904;8.978;2023-02-01T05:01:47;9.57;;;5.10;;
61685;SDS011;47592;45.904;8.978;2023-02-01T05:04:13;11.65;;;5.63;;
61685;SDS011;47592;45.904;8.978;2023-02-01T05:06:38;10.98;;;5.68;;
61685;SDS011;47592;45.904;8.978;2023-02-01T05:09:04;10.70;;;5.70;;
61685;SDS011;47592;45.904;8.978;2023-02-01T05:11:29;11.90;;;6.85;;
61685;SDS011;47592;45.904;8.978;2023-02-01T05:14:13;11.95;;;6.38;;
61685;SDS011;47592;45.904;8.978;2023-02-01T05:16:39;12.60;;;6.13;;
61685;SDS011;47592;45.904;8.978;2023-02-01T05:19:04;11.45;;;5.72;;
61685;SDS011;47592;45.904;8.978;2023-02-01T05:21:30;9.48;;;5.72;;
61685;SDS011;47592;45.904;8.978;2023-02-01T05:23:55;10.50;;;5.85;;
61685;SDS011;47592;45.904;8.978;2023-02-01T05:26:38;11.90;;;6.60;;
61685;SDS011;47592;45.904;8.978;2023-02-01T05:29:06;10.80;;;6.25;;
61685;SDS011;47592;45.904;8.978;2023-02-01T05:31:32;12.68;;;6.18;;
61685;SDS011;47592;45.904;8.978;2023-02-01T05:33:58;10.80;;;6.45;;
61685;SDS011;47592;45.904;8.978;2023-02-01T05:36:24;10.43;;;6.10;;
61685;SDS011;47592;45.904;8.978;2023-02-01T05:38:50;12.45;;;6.50;;
61685;SDS011;47592;45.904;8.978;2023-02-01T05:41:15;11.98;;;5.95;;
61685;SDS011;47592;45.904;8.978;2023-02-01T05:43:40;13.00;;;7.18;;
61685;SDS011;47592;45.904;8.978;2023-02-01T05:46:06;13.38;;;7.35;;
61685;SDS011;47592;45.904;8.978;2023-02-01T05:48:33;17.65;;;7.70;;
61685;SDS011;47592;45.904;8.978;2023-02-01T05:50:58;14.23;;;7.75;;
61685;SDS011;47592;45.904;8.978;2023-02-01T05:53:24;14.40;;;7.78;;
61685;SDS011;47592;45.904;8.978;2023-02-01T05:55:50;15.45;;;8.27;;
61685;SDS011;47592;45.904;8.978;2023-02-01T05:58:16;16.35;;;9.07;;
61685;SDS011;47592;45.904;8.978;2023-02-01T06:00:43;16.40;;;10.20;;
61685;SDS011;47592;45.904;8.978;2023-02-01T06:03:12;13.98;;;8.52;;
61685;SDS011;47592;45.904;8.978;2023-02-01T06:05:38;14.32;;;9.45;;
61685;SDS011;47592;45.904;8.978;2023-02-01T06:08:04;16.40;;;11.07;;
61685;SDS011;47592;45.904;8.978;2023-02-01T06:10:32;20.48;;;11.13;;
61685;SDS011;47592;45.904;8.978;2023-02-01T06:15:42;17.88;;;10.77;;
61685;SDS011;47592;45.904;8.978;2023-02-01T06:18:11;17.88;;;8.80;;
61685;SDS011;47592;45.904;8.978;2023-02-01T06:20:36;19.05;;;9.98;;
61685;SDS011;47592;45.904;8.978;2023-02-01T06:26:07;18.23;;;9.52;;
61685;SDS011;47592;45.904;8.978;2023-02-01T06:28:34;15.25;;;9.10;;
61685;SDS011;47592;45.904;8.978;2023-02-01T06:33:45;19.88;;;11.68;;
61685;SDS011;47592;45.904;8.978;2023-02-01T06:36:12;20.25;;;10.75;;
61685;SDS011;47592;45.904;8.978;2023-02-01T06:38:38;17.73;;;10.57;;
61685;SDS011;47592;45.904;8.978;2023-02-01T06:41:04;19.15;;;10.05;;
61685;SDS011;47592;45.904;8.978;2023-02-01T06:43:30;19.52;;;11.63;;
61685;SDS011;47592;45.904;8.978;2023-02-01T06:46:01;19.55;;;10.70;;
61685;SDS011;47592;45.904;8.978;2023-02-01T06:48:28;16.55;;;10.68;;
61685;SDS011;47592;45.904;8.978;2023-02-01T06:50:54;20.88;;;10.65;;
61685;SDS011;47592;45.904;8.978;2023-02-01T06:53:20;22.23;;;11.32;;
61685;SDS011;47592;45.904;8.978;2023-02-01T06:55:52;16.65;;;10.10;;
61685;SDS011;47592;45.904;8.978;2023-02-01T06:58:18;20.48;;;11.00;;
61685;SDS011;47592;45.904;8.978;2023-02-01T07:00:44;16.00;;;10.82;;
61685;SDS011;47592;45.904;8.978;2023-02-01T07:03:09;16.92;;;10.40;;
61685;SDS011;47592;45.904;8.978;2023-02-01T07:05:35;16.67;;;9.88;;
61685;SDS011;47592;45.904;8.978;2023-02-01T07:08:00;19.85;;;11.27;;
61685;SDS011;47592;45.904;8.978;2023-02-01T07:10:26;16.55;;;10.20;;
61685;SDS011;47592;45.904;8.978;2023-02-01T07:12:52;20.77;;;10.57;;
61685;SDS011;47592;45.904;8.978;2023-02-01T07:15:17;22.73;;;10.75;;
61685;SDS011;47592;45.904;8.978;2023-02-01T07:17:43;21.48;;;11.93;;
61685;SDS011;47592;45.904;8.978;2023-02-01T07:20:09;20.38;;;11.30;;
61685;SDS011;47592;45.904;8.978;2023-02-01T07:22:35;22.52;;;11.55;;
61685;SDS011;47592;45.904;8.978;2023-02-01T07:25:01;26.08;;;12.70;;
61685;SDS011;47592;45.904;8.978;2023-02-01T07:27:27;24.13;;;13.18;;
61685;SDS011;47592;45.904;8.978;2023-02-01T07:29:53;20.48;;;13.05;;
61685;SDS011;47592;45.904;8.978;2023-02-01T07:32:20;24.17;;;13.13;;
61685;SDS011;47592;45.904;8.978;2023-02-01T07:34:46;20.65;;;12.13;;
61685;SDS011;47592;45.904;8.978;2023-02-01T07:37:11;22.90;;;11.80;;
61685;SDS011;47592;45.904;8.978;2023-02-01T07:39:37;20.92;;;11.05;;
61685;SDS011;47592;45.904;8.978;2023-02-01T07:42:02;23.48;;;12.02;;
61685;SDS011;47592;45.904;8.978;2023-02-01T07:44:30;19.15;;;11.85;;
61685;SDS011;47592;45.904;8.978;2023-02-01T07:46:56;24.52;;;13.57;;
61685;SDS011;47592;45.904;8.978;2023-02-01T07:49:21;37.20;;;17.10;;
61685;SDS011;47592;45.904;8.978;2023-02-01T07:51:47;36.30;;;15.90;;
61685;SDS011;47592;45.904;8.978;2023-02-01T07:54:12;31.67;;;14.63;;
61685;SDS011;47592;45.904;8.978;2023-02-01T07:56:38;28.65;;;15.02;;
61685;SDS011;47592;45.904;8.978;2023-02-01T07:59:03;34.10;;;14.60;;
61685;SDS011;47592;45.904;8.978;2023-02-01T08:01:29;27.60;;;15.00;;
61685;SDS011;47592;45.904;8.978;2023-02-01T08:03:55;28.45;;;13.38;;
61685;SDS011;47592;45.904;8.978;2023-02-01T08:06:23;20.70;;;12.77;;
61685;SDS011;47592;45.904;8.978;2023-02-01T08:08:49;22.45;;;12.48;;
61685;SDS011;47592;45.904;8.978;2023-02-01T08:11:15;23.95;;;12.02;;
61685;SDS011;47592;45.904;8.978;2023-02-01T08:13:42;24.52;;;12.43;;
61685;SDS011;47592;45.904;8.978;2023-02-01T08:16:08;23.35;;;12.50;;
61685;SDS011;47592;45.904;8.978;2023-02-01T08:18:35;22.92;;;12.57;;
61685;SDS011;47592;45.904;8.978;2023-02-01T08:23:30;24.27;;;12.45;;
61685;SDS011;47592;45.904;8.978;2023-02-01T08:26:18;22.25;;;12.05;;
61685;SDS011;47592;45.904;8.978;2023-02-01T08:28:44;25.17;;;12.00;;
61685;SDS011;47592;45.904;8.978;2023-02-01T08:31:12;25.60;;;12.10;;
61685;SDS011;47592;45.904;8.978;2023-02-01T08:33:42;22.83;;;11.63;;
61685;SDS011;47592;45.904;8.978;2023-02-01T08:36:09;20.40;;;11.65;;
61685;SDS011;47592;45.904;8.978;2023-02-01T08:38:36;22.65;;;12.02;;
61685;SDS011;47592;45.904;8.978;2023-02-01T08:41:13;23.35;;;13.00;;
61685;SDS011;47592;45.904;8.978;2023-02-01T08:43:40;25.70;;;12.07;;
61685;SDS011;47592;45.904;8.978;2023-02-01T08:46:07;20.10;;;11.15;;
61685;SDS011;47592;45.904;8.978;2023-02-01T08:48:33;21.77;;;11.50;;
61685;SDS011;47592;45.904;8.978;2023-02-01T08:51:03;22.90;;;10.60;;
61685;SDS011;47592;45.904;8.978;2023-02-01T08:53:30;18.85;;;10.57;;
61685;SDS011;47592;45.904;8.978;2023-02-01T08:55:56;19.17;;;10.27;;
61685;SDS011;47592;45.904;8.978;2023-02-01T08:58:21;18.83;;;10.75;;
61685;SDS011;47592;45.904;8.978;2023-02-01T09:00:47;17.65;;;10.40;;
61685;SDS011;47592;45.904;8.978;2023-02-01T09:03:13;21.08;;;11.38;;
61685;SDS011;47592;45.904;8.978;2023-02-01T09:05:39;21.48;;;10.93;;
61685;SDS011;47592;45.904;8.978;2023-02-01T09:08:05;19.13;;;10.68;;
61685;SDS011;47592;45.904;8.978;2023-02-01T09:10:31;20.65;;;10.57;;
61685;SDS011;47592;45.904;8.978;2023-02-01T09:12:57;18.00;;;9.25;;
61685;SDS011;47592;45.904;8.978;2023-02-01T09:15:22;17.73;;;10.43;;
61685;SDS011;47592;45.904;8.978;2023-02-01T09:17:48;20.13;;;9.77;;
61685;SDS011;47592;45.904;8.978;2023-02-01T09:20:14;15.88;;;8.90;;
61685;SDS011;47592;45.904;8.978;2023-02-01T09:22:40;16.35;;;9.00;;
61685;SDS011;47592;45.904;8.978;2023-02-01T09:25:05;18.35;;;10.05;;
61685;SDS011;47592;45.904;8.978;2023-02-01T09:27:31;18.20;;;10.43;;
61685;SDS011;47592;45.904;8.978;2023-02-01T09:29:57;17.90;;;9.90;;
61685;SDS011;47592;45.904;8.978;2023-02-01T09:32:23;17.60;;;10.32;;
61685;SDS011;47592;45.904;8.978;2023-02-01T09:34:49;17.50;;;9.38;;
61685;SDS011;47592;45.904;8.978;2023-02-01T09:37:15;18.17;;;9.77;;
61685;SDS011;47592;45.904;8.978;2023-02-01T09:39:41;21.40;;;11.30;;
61685;SDS011;47592;45.904;8.978;2023-02-01T09:47:57;22.30;;;11.52;;
61685;SDS011;47592;45.904;8.978;2023-02-01T09:50:36;21.15;;;10.95;;
61685;SDS011;47592;45.904;8.978;2023-02-01T09:53:23;17.65;;;9.20;;
61685;SDS011;47592;45.904;8.978;2023-02-01T09:55:55;16.75;;;9.75;;
61685;SDS011;47592;45.904;8.978;2023-02-01T09:58:27;15.57;;;7.95;;
61685;SDS011;47592;45.904;8.978;2023-02-01T10:00:57;15.60;;;7.68;;
61685;SDS011;47592;45.904;8.978;2023-02-01T10:03:26;15.50;;;8.43;;
61685;SDS011;47592;45.904;8.978;2023-02-01T10:11:18;14.70;;;7.07;;
61685;SDS011;47592;45.904;8.978;2023-02-01T10:22:32;9.00;;;4.97;;
61685;SDS011;47592;45.904;8.978;2023-02-01T10:25:05;10.30;;;6.15;;
61685;SDS011;47592;45.904;8.978;2023-02-01T10:27:38;14.10;;;5.85;;
61685;SDS011;47592;45.904;8.978;2023-02-01T10:32:44;14.85;;;7.97;;
61685;SDS011;47592;45.904;8.978;2023-02-01T10:35:17;12.73;;;6.00;;
61685;SDS011;47592;45.904;8.978;2023-02-01T10:37:44;8.85;;;4.63;;
61685;SDS011;47592;45.904;8.978;2023-02-01T10:42:37;10.80;;;5.13;;
61685;SDS011;47592;45.904;8.978;2023-02-01T10:45:04;6.20;;;2.60;;
61685;SDS011;47592;45.904;8.978;2023-02-01T10:47:31;6.03;;;2.63;;
61685;SDS011;47592;45.904;8.978;2023-02-01T10:50:02;6.90;;;2.70;;
61685;SDS011;47592;45.904;8.978;2023-02-01T10:52:45;5.75;;;2.22;;
61685;SDS011;47592;45.904;8.978;2023-02-01T10:55:50;7.05;;;2.47;;
61685;SDS011;47592;45.904;8.978;2023-02-01T10:58:19;7.20;;;2.30;;
61685;SDS011;47592;45.904;8.978;2023-02-01T11:00:52;8.98;;;2.22;;
61685;SDS011;47592;45.904;8.978;2023-02-01T11:06:19;5.55;;;1.80;;
61685;SDS011;47592;45.904;8.978;2023-02-01T11:08:51;4.97;;;1.90;;
61685;SDS011;47592;45.904;8.978;2023-02-01T11:11:19;5.63;;;2.28;;
61685;SDS011;47592;45.904;8.978;2023-02-01T11:13:45;7.15;;;2.20;;
61685;SDS011;47592;45.904;8.978;2023-02-01T11:16:17;6.10;;;2.05;;
61685;SDS011;47592;45.904;8.978;2023-02-01T11:18:43;4.38;;;1.90;;
61685;SDS011;47592;45.904;8.978;2023-02-01T11:21:10;5.70;;;2.28;;
61685;SDS011;47592;45.904;8.978;2023-02-01T11:23:40;5.70;;;2.60;;
61685;SDS011;47592;45.904;8.978;2023-02-01T11:26:12;9.45;;;3.08;;
61685;SDS011;47592;45.904;8.978;2023-02-01T11:29:00;6.20;;;2.67;;
61685;SDS011;47592;45.904;8.978;2023-02-01T11:31:30;6.88;;;2.97;;
61685;SDS011;47592;45.904;8.978;2023-02-01T11:33:59;5.63;;;2.42;;
61685;SDS011;47592;45.904;8.978;2023-02-01T11:36:30;5.65;;;2.53;;
61685;SDS011;47592;45.904;8.978;2023-02-01T11:39:17;7.10;;;2.50;;
61685;SDS011;47592;45.904;8.978;2023-02-01T11:41:54;5.80;;;2.50;;
61685;SDS011;47592;45.904;8.978;2023-02-01T11:44:37;5.18;;;2.20;;
61685;SDS011;47592;45.904;8.978;2023-02-01T11:49:50;4.63;;;1.90;;
61685;SDS011;47592;45.904;8.978;2023-02-01T11:52:29;6.68;;;2.10;;
61685;SDS011;47592;45.904;8.978;2023-02-01T12:00:39;7.75;;;2.20;;
61685;SDS011;47592;45.904;8.978;2023-02-01T12:09:42;7.82;;;2.30;;
61685;SDS011;47592;45.904;8.978;2023-02-01T12:20:58;6.00;;;2.47;;
61685;SDS011;47592;45.904;8.978;2023-02-01T12:23:44;5.97;;;2.50;;
61685;SDS011;47592;45.904;8.978;2023-02-01T12:31:51;6.57;;;3.10;;
61685;SDS011;47592;45.904;8.978;2023-02-01T12:40:10;6.32;;;2.80;;
61685;SDS011;47592;45.904;8.978;2023-02-01T12:42:40;6.30;;;2.80;;
61685;SDS011;47592;45.904;8.978;2023-02-01T12:45:14;8.35;;;3.05;;
61685;SDS011;47592;45.904;8.978;2023-02-01T12:47:54;6.18;;;2.67;;
61685;SDS011;47592;45.904;8.978;2023-02-01T12:53:06;6.97;;;2.85;;
61685;SDS011;47592;45.904;8.978;2023-02-01T13:00:40;7.22;;;2.63;;
61685;SDS011;47592;45.904;8.978;2023-02-01T13:03:21;7.78;;;2.83;;
61685;SDS011;47592;45.904;8.978;2023-02-01T13:09:19;4.70;;;1.73;;
61685;SDS011;47592;45.904;8.978;2023-02-01T13:12:21;4.88;;;2.00;;
61685;SDS011;47592;45.904;8.978;2023-02-01T13:14:59;4.55;;;1.70;;
61685;SDS011;47592;45.904;8.978;2023-02-01T13:17:29;5.28;;;1.75;;
61685;SDS011;47592;45.904;8.978;2023-02-01T13:19:59;6.55;;;2.20;;
61685;SDS011;47592;45.904;8.978;2023-02-01T13:22:35;4.97;;;2.25;;
61685;SDS011;47592;45.904;8.978;2023-02-01T13:27:35;6.93;;;2.70;;
61685;SDS011;47592;45.904;8.978;2023-02-01T13:30:23;7.00;;;2.88;;
61685;SDS011;47592;45.904;8.978;2023-02-01T13:43:36;4.78;;;1.80;;
61685;SDS011;47592;45.904;8.978;2023-02-01T13:46:08;5.35;;;2.10;;
61685;SDS011;47592;45.904;8.978;2023-02-01T13:48:45;7.22;;;3.38;;
61685;SDS011;47592;45.904;8.978;2023-02-01T13:51:14;6.65;;;3.30;;
61685;SDS011;47592;45.904;8.978;2023-02-01T13:53:47;7.63;;;3.53;;
61685;SDS011;47592;45.904;8.978;2023-02-01T13:56:17;9.65;;;3.95;;
61685;SDS011;47592;45.904;8.978;2023-02-01T13:58:47;7.70;;;3.17;;
61685;SDS011;47592;45.904;8.978;2023-02-01T14:06:18;6.88;;;2.38;;
61685;SDS011;47592;45.904;8.978;2023-02-01T14:11:43;6.85;;;2.63;;
61685;SDS011;47592;45.904;8.978;2023-02-01T14:16:42;6.15;;;2.50;;
61685;SDS011;47592;45.904;8.978;2023-02-01T14:19:21;5.35;;;2.28;;
61685;SDS011;47592;45.904;8.978;2023-02-01T14:21:55;6.43;;;2.40;;
61685;SDS011;47592;45.904;8.978;2023-02-01T14:24:27;5.93;;;2.30;;
61685;SDS011;47592;45.904;8.978;2023-02-01T14:27:28;5.65;;;2.40;;
61685;SDS011;47592;45.904;8.978;2023-02-01T14:29:52;6.47;;;2.70;;
61685;SDS011;47592;45.904;8.978;2023-02-01T14:35:07;8.20;;;2.95;;
61685;SDS011;47592;45.904;8.978;2023-02-01T14:37:41;6.70;;;2.67;;
61685;SDS011;47592;45.904;8.978;2023-02-01T14:55:47;5.10;;;2.00;;
61685;SDS011;47592;45.904;8.978;2023-02-01T15:03:59;4.55;;;2.08;;
61685;SDS011;47592;45.904;8.978;2023-02-01T15:06:38;5.07;;;2.40;;
61685;SDS011;47592;45.904;8.978;2023-02-01T15:11:52;7.68;;;2.60;;
61685;SDS011;47592;45.904;8.978;2023-02-01T15:14:25;7.80;;;3.30;;
61685;SDS011;47592;45.904;8.978;2023-02-01T15:16:54;6.45;;;3.10;;
61685;SDS011;47592;45.904;8.978;2023-02-01T15:19:21;6.80;;;2.60;;
61685;SDS011;47592;45.904;8.978;2023-02-01T15:21:49;9.35;;;2.78;;
61685;SDS011;47592;45.904;8.978;2023-02-01T15:24:19;6.40;;;2.70;;
61685;SDS011;47592;45.904;8.978;2023-02-01T15:26:48;11.55;;;3.15;;
61685;SDS011;47592;45.904;8.978;2023-02-01T15:29:15;5.65;;;2.85;;
61685;SDS011;47592;45.904;8.978;2023-02-01T15:31:42;6.43;;;2.63;;
61685;SDS011;47592;45.904;8.978;2023-02-01T15:34:09;6.90;;;3.03;;
61685;SDS011;47592;45.904;8.978;2023-02-01T15:36:36;10.82;;;3.15;;
61685;SDS011;47592;45.904;8.978;2023-02-01T15:39:19;8.50;;;3.88;;
61685;SDS011;47592;45.904;8.978;2023-02-01T15:41:55;10.45;;;3.65;;
61685;SDS011;47592;45.904;8.978;2023-02-01T15:44:32;9.85;;;3.38;;
61685;SDS011;47592;45.904;8.978;2023-02-01T15:47:04;9.85;;;3.63;;
61685;SDS011;47592;45.904;8.978;2023-02-01T15:49:38;11.63;;;3.83;;
61685;SDS011;47592;45.904;8.978;2023-02-01T15:52:11;10.40;;;3.70;;
61685;SDS011;47592;45.904;8.978;2023-02-01T15:55:02;10.25;;;4.65;;
61685;SDS011;47592;45.904;8.978;2023-02-01T15:57:35;9.95;;;5.78;;
61685;SDS011;47592;45.904;8.978;2023-02-01T16:00:04;19.60;;;6.60;;
61685;SDS011;47592;45.904;8.978;2023-02-01T16:02:37;18.38;;;6.38;;
61685;SDS011;47592;45.904;8.978;2023-02-01T16:08:14;12.68;;;6.43;;
61685;SDS011;47592;45.904;8.978;2023-02-01T16:10:42;15.30;;;7.97;;
61685;SDS011;47592;45.904;8.978;2023-02-01T16:13:13;18.00;;;7.75;;
61685;SDS011;47592;45.904;8.978;2023-02-01T16:15:39;15.75;;;7.55;;
61685;SDS011;47592;45.904;8.978;2023-02-01T16:18:05;14.85;;;7.75;;
61685;SDS011;47592;45.904;8.978;2023-02-01T16:20:34;13.68;;;7.70;;
61685;SDS011;47592;45.904;8.978;2023-02-01T16:23:04;12.80;;;6.95;;
61685;SDS011;47592;45.904;8.978;2023-02-01T16:25:30;18.95;;;8.15;;
61685;SDS011;47592;45.904;8.978;2023-02-01T16:27:55;15.80;;;8.25;;
61685;SDS011;47592;45.904;8.978;2023-02-01T16:30:21;14.52;;;7.38;;
61685;SDS011;47592;45.904;8.978;2023-02-01T16:32:51;15.15;;;7.22;;
61685;SDS011;47592;45.904;8.978;2023-02-01T16:35:31;15.52;;;6.25;;
61685;SDS011;47592;45.904;8.978;2023-02-01T16:38:01;15.57;;;5.95;;
61685;SDS011;47592;45.904;8.978;2023-02-01T16:40:38;11.05;;;6.47;;
61685;SDS011;47592;45.904;8.978;2023-02-01T16:43:23;14.60;;;7.05;;
61685;SDS011;47592;45.904;8.978;2023-02-01T16:45:51;13.25;;;6.78;;
61685;SDS011;47592;45.904;8.978;2023-02-01T16:48:52;13.02;;;7.22;;
61685;SDS011;47592;45.904;8.978;2023-02-01T16:51:13;14.07;;;7.78;;
61685;SDS011;47592;45.904;8.978;2023-02-01T16:53:40;14.93;;;7.63;;
61685;SDS011;47592;45.904;8.978;2023-02-01T16:58:42;13.30;;;7.82;;
61685;SDS011;47592;45.904;8.978;2023-02-01T17:01:10;15.65;;;7.38;;
61685;SDS011;47592;45.904;8.978;2023-02-01T17:03:37;12.00;;;7.20;;
61685;SDS011;47592;45.904;8.978;2023-02-01T17:06:04;16.42;;;7.53;;
61685;SDS011;47592;45.904;8.978;2023-02-01T17:08:34;16.80;;;9.55;;
61685;SDS011;47592;45.904;8.978;2023-02-01T17:11:02;24.45;;;11.38;;
61685;SDS011;47592;45.904;8.978;2023-02-01T17:13:29;20.15;;;10.18;;
61685;SDS011;47592;45.904;8.978;2023-02-01T17:15:56;18.55;;;10.18;;
61685;SDS011;47592;45.904;8.978;2023-02-01T17:18:24;22.17;;;9.80;;
61685;SDS011;47592;45.904;8.978;2023-02-01T17:20:50;20.20;;;10.43;;
61685;SDS011;47592;45.904;8.978;2023-02-01T17:23:17;15.50;;;9.32;;
61685;SDS011;47592;45.904;8.978;2023-02-01T17:25:44;16.08;;;10.13;;
61685;SDS011;47592;45.904;8.978;2023-02-01T17:28:09;24.85;;;10.55;;
61685;SDS011;47592;45.904;8.978;2023-02-01T17:30:36;15.05;;;8.48;;
61685;SDS011;47592;45.904;8.978;2023-02-01T17:33:02;13.23;;;6.70;;
61685;SDS011;47592;45.904;8.978;2023-02-01T17:35:28;12.75;;;7.20;;
61685;SDS011;47592;45.904;8.978;2023-02-01T17:37:56;15.98;;;8.10;;
61685;SDS011;47592;45.904;8.978;2023-02-01T17:40:22;17.35;;;6.78;;
61685;SDS011;47592;45.904;8.978;2023-02-01T17:42:48;14.65;;;6.38;;
61685;SDS011;47592;45.904;8.978;2023-02-01T17:45:20;16.13;;;6.53;;
61685;SDS011;47592;45.904;8.978;2023-02-01T17:47:49;16.25;;;6.45;;
61685;SDS011;47592;45.904;8.978;2023-02-01T17:50:14;20.67;;;7.60;;
61685;SDS011;47592;45.904;8.978;2023-02-01T17:52:40;16.98;;;7.15;;